createdAt,value
2017-08-17T00:00:31.368Z,54.10
2017-08-17T00:02:58.876Z,54.10
2017-08-17T00:05:26.387Z,54.10
2017-08-17T00:07:53.914Z,54.10
2017-08-17T00:10:21.427Z,54.10
2017-08-17T00:12:48.942Z,54.10
2017-08-17T00:15:16.457Z,54.20
2017-08-17T00:17:44.733Z,54.20
2017-08-17T00:20:13.037Z,54.20
2017-08-17T00:22:40.553Z,54.10
2017-08-17T00:25:08.091Z,54.20
2017-08-17T00:27:35.602Z,54.30
2017-08-17T00:30:03.869Z,54.30
2017-08-17T00:32:31.424Z,54.30
2017-08-17T00:34:59.788Z,54.30
2017-08-17T00:37:27.287Z,54.20
2017-08-17T00:39:54.840Z,54.30
2017-08-17T00:42:23.110Z,54.40
2017-08-17T00:44:50.639Z,54.30
2017-08-17T00:47:18.161Z,55.10
2017-08-17T00:49:45.685Z,54.40
2017-08-17T00:52:13.957Z,54.50
2017-08-17T00:54:42.323Z,54.40
2017-08-17T00:57:10.605Z,54.40
2017-08-17T00:59:38.134Z,54.30
2017-08-17T01:02:05.637Z,55.20
2017-08-17T01:04:33.279Z,54.50
2017-08-17T01:07:00.820Z,54.40
2017-08-17T01:09:28.345Z,54.50
2017-08-17T01:11:55.857Z,54.40
2017-08-17T01:14:24.140Z,55.20
2017-08-17T01:16:51.653Z,54.40
2017-08-17T01:19:19.149Z,54.50
2017-08-17T01:21:46.669Z,54.50
2017-08-17T01:24:21.948Z,54.60
2017-08-17T01:26:55.413Z,54.50
2017-08-17T01:29:23.064Z,54.60
2017-08-17T01:31:50.573Z,54.50
2017-08-17T01:34:18.072Z,54.60
2017-08-17T01:36:45.609Z,54.60
2017-08-17T01:39:13.868Z,54.60
2017-08-17T01:41:41.373Z,54.60
2017-08-17T01:44:08.913Z,54.60
2017-08-17T01:46:37.177Z,54.70
2017-08-17T01:49:05.475Z,54.60
2017-08-17T01:51:32.986Z,54.60
2017-08-17T01:54:00.531Z,54.70
2017-08-17T01:56:28.045Z,54.70
2017-08-17T01:58:55.546Z,54.70
2017-08-17T02:01:23.070Z,54.70
2017-08-17T02:03:50.630Z,54.70
2017-08-17T02:06:18.268Z,54.80
2017-08-17T02:08:46.571Z,54.80
2017-08-17T02:11:14.058Z,54.70
2017-08-17T02:13:41.568Z,54.80
2017-08-17T02:16:09.882Z,54.70
2017-08-17T02:18:37.384Z,54.70
2017-08-17T02:21:04.903Z,54.80
2017-08-17T02:23:32.409Z,54.70
2017-08-17T02:26:00.005Z,54.80
2017-08-17T02:28:27.505Z,54.80
2017-08-17T02:30:55.061Z,54.80
2017-08-17T02:33:22.580Z,54.70
2017-08-17T02:35:56.763Z,54.80
2017-08-17T02:38:24.262Z,54.80
2017-08-17T02:40:51.770Z,54.80
2017-08-17T02:43:19.283Z,54.90
2017-08-17T02:45:46.785Z,54.80
2017-08-17T02:48:14.330Z,54.80
2017-08-17T02:50:41.873Z,54.80
2017-08-17T02:53:09.498Z,54.90
2017-08-17T02:55:38.514Z,54.90
2017-08-17T02:58:06.021Z,54.80
2017-08-17T03:00:33.526Z,54.80
2017-08-17T03:03:01.055Z,54.80
2017-08-17T03:05:28.563Z,54.90
2017-08-17T03:07:56.074Z,54.90
2017-08-17T03:10:23.615Z,54.90
2017-08-17T03:12:51.161Z,54.90
2017-08-17T03:15:18.751Z,54.90
2017-08-17T03:17:46.269Z,54.90
2017-08-17T03:20:13.805Z,54.90
2017-08-17T03:22:41.309Z,54.90
2017-08-17T03:25:08.833Z,54.90
2017-08-17T03:27:36.386Z,54.90
2017-08-17T03:30:03.923Z,55.00
2017-08-17T03:32:32.187Z,56.00
2017-08-17T03:34:59.693Z,54.90
2017-08-17T03:37:27.225Z,55.00
2017-08-17T03:39:55.505Z,55.20
2017-08-17T03:42:23.033Z,55.00
2017-08-17T03:44:50.544Z,55.00
2017-08-17T03:47:18.093Z,55.00
2017-08-17T03:49:45.587Z,55.00
2017-08-17T03:52:13.093Z,55.00
2017-08-17T03:54:41.360Z,55.70
2017-08-17T03:57:08.877Z,55.10
2017-08-17T03:59:36.393Z,55.10
2017-08-17T04:02:04.001Z,55.20
2017-08-17T04:04:31.544Z,55.20
2017-08-17T04:06:59.120Z,55.10
2017-08-17T04:09:26.776Z,55.10
2017-08-17T04:11:54.263Z,55.10
2017-08-17T04:14:21.781Z,55.10
2017-08-17T04:16:49.390Z,55.10
2017-08-17T04:19:16.898Z,56.00
2017-08-17T04:21:44.411Z,55.20
2017-08-17T04:24:11.932Z,55.10
2017-08-17T04:26:39.425Z,55.10
2017-08-17T04:29:06.941Z,55.10
2017-08-17T04:31:34.478Z,55.20
2017-08-17T04:34:02.761Z,55.10
2017-08-17T04:36:31.021Z,55.10
2017-08-17T04:38:59.308Z,55.50
2017-08-17T04:41:27.595Z,55.30
2017-08-17T04:43:55.873Z,55.20
2017-08-17T04:46:23.517Z,55.10
2017-08-17T04:48:51.017Z,55.20
2017-08-17T04:51:18.514Z,55.20
2017-08-17T04:53:46.046Z,55.20
2017-08-17T04:56:31.389Z,55.20
2017-08-17T04:58:58.960Z,55.20
2017-08-17T05:01:26.501Z,55.20
2017-08-17T05:03:54.786Z,55.10
2017-08-17T05:06:23.100Z,55.10
2017-08-17T05:08:50.613Z,55.10
2017-08-17T05:13:52.932Z,55.10
2017-08-17T05:16:20.442Z,55.20
2017-08-17T05:18:47.991Z,55.20
2017-08-17T05:21:15.516Z,55.20
2017-08-17T05:23:43.034Z,55.20
2017-08-17T05:26:11.442Z,55.10
2017-08-17T05:28:38.954Z,55.00
2017-08-17T05:31:06.457Z,55.20
2017-08-17T05:33:34.038Z,55.20
2017-08-17T05:36:01.585Z,55.20
2017-08-17T05:38:29.098Z,55.20
2017-08-17T05:40:56.643Z,55.30
2017-08-17T05:43:24.169Z,55.70
2017-08-17T05:45:51.707Z,56.10
2017-08-17T05:48:19.984Z,54.90
2017-08-17T05:50:47.513Z,54.80
2017-08-17T05:53:15.025Z,53.90
2017-08-17T05:55:42.533Z,53.50
2017-08-17T05:58:10.041Z,53.40
2017-08-17T06:00:37.566Z,53.30
2017-08-17T06:03:05.839Z,53.50
2017-08-17T06:05:33.345Z,53.40
2017-08-17T06:08:00.863Z,53.70
2017-08-17T06:10:29.159Z,54.00
2017-08-17T06:12:57.414Z,53.90
2017-08-17T06:15:24.977Z,53.80
2017-08-17T06:17:52.592Z,53.90
2017-08-17T06:20:20.229Z,53.90
2017-08-17T06:22:47.890Z,53.90
2017-08-17T06:25:15.404Z,53.70
2017-08-17T06:27:42.990Z,53.70
2017-08-17T06:30:11.461Z,53.90
2017-08-17T06:32:39.048Z,53.80
2017-08-17T06:35:06.638Z,53.80
2017-08-17T06:37:34.258Z,53.80
2017-08-17T06:40:02.553Z,54.00
2017-08-17T06:42:30.075Z,54.00
2017-08-17T06:44:57.584Z,54.00
2017-08-17T06:47:25.143Z,54.10
2017-08-17T06:49:52.679Z,54.20
2017-08-17T06:52:21.018Z,54.30
2017-08-17T06:54:48.535Z,54.30
2017-08-17T06:57:16.060Z,54.40
2017-08-17T06:59:43.558Z,54.50
2017-08-17T07:02:11.197Z,54.60
2017-08-17T07:04:38.712Z,54.60
2017-08-17T07:07:06.278Z,54.80
2017-08-17T07:09:33.882Z,54.80
2017-08-17T07:12:02.179Z,55.10
2017-08-17T07:14:29.687Z,55.10
2017-08-17T07:16:57.198Z,55.20
2017-08-17T07:19:24.728Z,55.20
2017-08-17T07:21:53.012Z,56.10
2017-08-17T07:24:21.424Z,55.30
2017-08-17T07:26:49.115Z,55.20
2017-08-17T07:29:16.622Z,55.30
2017-08-17T07:31:44.133Z,55.40
2017-08-17T07:34:11.671Z,55.40
2017-08-17T07:36:39.213Z,55.40
2017-08-17T07:39:06.805Z,55.50
2017-08-17T07:41:34.378Z,55.30
2017-08-17T07:44:02.047Z,55.20
2017-08-17T07:46:29.618Z,55.20
2017-08-17T07:48:57.133Z,55.20
2017-08-17T07:51:24.714Z,55.30
2017-08-17T07:53:52.237Z,55.40
2017-08-17T07:56:19.745Z,55.40
2017-08-17T07:58:47.299Z,55.60
2017-08-17T08:01:14.991Z,55.60
2017-08-17T08:03:42.523Z,55.70
2017-08-17T08:06:10.185Z,55.60
2017-08-17T08:08:37.699Z,55.70
2017-08-17T08:11:05.242Z,55.70
2017-08-17T08:13:33.509Z,55.70
2017-08-17T08:16:01.043Z,55.60
2017-08-17T08:18:28.542Z,55.50
2017-08-17T08:20:56.809Z,55.60
2017-08-17T08:23:24.441Z,55.50
2017-08-17T08:25:51.933Z,55.60
2017-08-17T08:28:20.299Z,55.60
2017-08-17T08:30:47.827Z,55.60
2017-08-17T08:33:15.490Z,55.60
2017-08-17T08:35:43.016Z,55.60
2017-08-17T08:38:10.529Z,55.80
2017-08-17T08:40:38.054Z,55.80
2017-08-17T08:43:05.541Z,55.70
2017-08-17T08:45:33.096Z,55.80
2017-08-17T08:48:00.622Z,55.60
2017-08-17T08:50:28.125Z,55.80
2017-08-17T08:52:55.676Z,55.80
2017-08-17T08:55:23.195Z,55.60
2017-08-17T08:57:50.846Z,55.10
2017-08-17T09:00:18.358Z,54.60
2017-08-17T09:02:45.928Z,55.50
2017-08-17T09:05:13.448Z,54.40
2017-08-17T09:07:41.082Z,54.00
2017-08-17T09:10:09.363Z,54.20
2017-08-17T09:12:36.860Z,54.10
2017-08-17T09:15:04.547Z,53.80
2017-08-17T09:17:32.076Z,54.20
2017-08-17T09:19:59.594Z,54.20
2017-08-17T09:22:27.882Z,54.00
2017-08-17T09:24:55.410Z,53.90
2017-08-17T09:27:22.924Z,54.10
2017-08-17T09:29:50.449Z,54.10
2017-08-17T09:32:18.700Z,53.80
2017-08-17T09:34:46.261Z,53.60
2017-08-17T09:37:13.783Z,54.00
2017-08-17T09:39:41.300Z,53.40
2017-08-17T09:42:09.593Z,53.20
2017-08-17T09:44:37.920Z,53.30
2017-08-17T09:47:05.418Z,53.20
2017-08-17T09:49:33.717Z,52.90
2017-08-17T09:52:01.247Z,52.90
2017-08-17T09:54:28.906Z,53.10
2017-08-17T09:56:56.482Z,53.00
2017-08-17T09:59:24.004Z,53.00
2017-08-17T10:01:51.518Z,53.10
2017-08-17T10:04:19.045Z,53.10
2017-08-17T10:06:46.571Z,53.40
2017-08-17T10:09:14.118Z,53.50
2017-08-17T10:11:41.627Z,53.50
2017-08-17T10:14:09.162Z,53.60
2017-08-17T10:16:36.661Z,53.60
2017-08-17T10:19:04.977Z,53.30
2017-08-17T10:21:32.485Z,53.30
2017-08-17T10:24:00.023Z,53.40
2017-08-17T10:26:27.546Z,53.30
2017-08-17T10:28:55.048Z,53.10
2017-08-17T10:31:22.585Z,53.20
2017-08-17T10:33:50.103Z,53.10
2017-08-17T10:36:17.636Z,53.10
2017-08-17T10:38:45.348Z,53.00
2017-08-17T10:41:12.907Z,53.10
2017-08-17T10:43:40.426Z,53.00
2017-08-17T10:46:07.978Z,53.00
2017-08-17T10:48:35.513Z,52.80
2017-08-17T10:51:03.023Z,52.60
2017-08-17T10:53:31.313Z,52.90
2017-08-17T10:55:58.940Z,52.90
2017-08-17T10:58:26.447Z,53.00
2017-08-17T11:00:53.973Z,52.80
2017-08-17T11:03:22.267Z,53.00
2017-08-17T11:05:49.819Z,53.00
2017-08-17T11:08:18.107Z,53.20
2017-08-17T11:10:45.650Z,53.20
2017-08-17T11:13:14.030Z,52.70
2017-08-17T11:15:41.704Z,52.70
2017-08-17T11:18:09.262Z,53.10
2017-08-17T11:20:37.542Z,52.60
2017-08-17T11:23:05.081Z,52.60
2017-08-17T11:25:33.365Z,52.50
2017-08-17T11:28:01.880Z,52.30
2017-08-17T11:30:29.423Z,52.30
2017-08-17T11:32:57.800Z,52.50
2017-08-17T11:35:25.477Z,52.40
2017-08-17T11:37:53.011Z,52.50
2017-08-17T11:40:21.330Z,52.60
2017-08-17T11:42:48.880Z,52.50
2017-08-17T11:45:16.389Z,52.50
2017-08-17T11:47:43.889Z,52.50
2017-08-17T11:50:11.535Z,52.50
2017-08-17T11:52:39.862Z,52.50
2017-08-17T11:55:07.370Z,52.40
2017-08-17T11:57:35.654Z,52.50
2017-08-17T12:00:03.995Z,52.60
2017-08-17T12:02:31.505Z,52.60
2017-08-17T12:04:59.009Z,52.50
2017-08-17T12:07:26.534Z,52.60
2017-08-17T12:09:54.029Z,52.60
2017-08-17T12:12:21.567Z,52.60
2017-08-17T12:14:49.084Z,52.70
2017-08-17T12:17:17.391Z,52.90
2017-08-17T12:19:44.902Z,52.90
2017-08-17T12:22:12.540Z,52.60
2017-08-17T12:24:40.068Z,52.70
2017-08-17T12:27:07.577Z,52.70
2017-08-17T12:29:35.182Z,52.70
2017-08-17T12:32:02.863Z,52.70
2017-08-17T12:34:30.415Z,52.70
2017-08-17T12:36:57.951Z,52.40
2017-08-17T12:39:26.218Z,52.40
2017-08-17T12:41:54.521Z,52.40
2017-08-17T12:44:22.069Z,52.40
2017-08-17T12:46:49.579Z,52.40
2017-08-17T12:49:17.107Z,52.20
2017-08-17T12:51:44.622Z,52.20
2017-08-17T12:54:12.166Z,52.40
2017-08-17T12:56:39.671Z,52.30
2017-08-17T12:59:07.220Z,52.40
2017-08-17T13:01:35.539Z,52.40
2017-08-17T13:04:03.049Z,52.30
2017-08-17T13:06:30.572Z,52.40
2017-08-17T13:08:58.103Z,52.30
2017-08-17T13:11:25.605Z,52.20
2017-08-17T13:13:53.138Z,52.40
2017-08-17T13:18:55.303Z,52.50
2017-08-17T13:21:22.797Z,52.50
2017-08-17T13:23:50.310Z,52.40
2017-08-17T13:26:17.821Z,52.50
2017-08-17T13:28:45.356Z,52.40
2017-08-17T13:31:12.930Z,52.40
2017-08-17T13:33:40.510Z,52.40
2017-08-17T13:36:08.036Z,52.40
2017-08-17T13:38:35.555Z,52.50
2017-08-17T13:41:03.862Z,53.30
2017-08-17T13:43:31.387Z,52.50
2017-08-17T13:45:58.961Z,52.50
2017-08-17T13:48:27.241Z,52.50
2017-08-17T13:50:55.505Z,52.50
2017-08-17T13:53:23.814Z,52.60
2017-08-17T13:55:51.333Z,52.60
2017-08-17T13:58:18.861Z,52.50
2017-08-17T14:00:46.399Z,52.50
2017-08-17T14:03:13.989Z,52.50
2017-08-17T14:05:41.496Z,52.60
2017-08-17T14:08:09.781Z,52.60
2017-08-17T14:10:37.335Z,52.60
2017-08-17T14:13:05.640Z,52.80
2017-08-17T14:15:33.177Z,52.80
2017-08-17T14:18:00.689Z,52.70
2017-08-17T14:20:28.244Z,52.70
2017-08-17T14:22:55.757Z,52.90
2017-08-17T14:25:23.285Z,52.90
2017-08-17T14:27:50.813Z,53.00
2017-08-17T14:30:18.319Z,53.00
2017-08-17T14:32:46.593Z,53.20
2017-08-17T14:35:14.865Z,53.20
2017-08-17T14:37:43.230Z,53.30
2017-08-17T14:40:10.737Z,54.00
2017-08-17T14:42:38.287Z,53.30
2017-08-17T14:45:05.791Z,53.40
2017-08-17T14:47:33.314Z,53.40
2017-08-17T14:50:00.829Z,53.30
2017-08-17T14:52:28.351Z,53.30
2017-08-17T14:54:55.902Z,53.40
2017-08-17T14:57:23.391Z,53.60
2017-08-17T14:59:50.934Z,53.60
2017-08-17T15:02:18.490Z,53.70
2017-08-17T15:04:46.027Z,53.60
2017-08-17T15:07:13.551Z,53.60
2017-08-17T15:09:41.086Z,53.50
2017-08-17T15:12:08.596Z,53.50
2017-08-17T15:14:36.130Z,53.60
2017-08-17T15:17:04.481Z,53.70
2017-08-17T15:19:32.120Z,53.90
2017-08-17T15:21:59.674Z,53.80
2017-08-17T15:24:27.196Z,54.70
2017-08-17T15:26:55.524Z,53.50
2017-08-17T15:29:23.054Z,53.50
2017-08-17T15:31:50.590Z,53.40
2017-08-17T15:34:18.146Z,53.30
2017-08-17T15:36:45.826Z,53.40
2017-08-17T15:39:14.151Z,53.30
2017-08-17T15:41:41.671Z,53.30
2017-08-17T15:44:10.221Z,53.20
2017-08-17T15:46:37.763Z,53.10
2017-08-17T15:49:05.274Z,53.10
2017-08-17T15:51:33.587Z,53.10
2017-08-17T15:54:01.106Z,53.10
2017-08-17T15:56:29.436Z,53.10
2017-08-17T15:58:56.964Z,53.10
2017-08-17T16:01:24.497Z,53.10
2017-08-17T16:03:52.819Z,53.20
2017-08-17T16:06:20.569Z,53.20
2017-08-17T16:08:48.102Z,53.10
2017-08-17T16:11:16.381Z,53.10
2017-08-17T16:13:44.701Z,53.10
2017-08-17T16:16:12.214Z,53.00
2017-08-17T16:18:40.498Z,54.00
2017-08-17T16:21:08.817Z,53.10
2017-08-17T16:23:36.339Z,53.10
2017-08-17T16:26:04.611Z,53.10
2017-08-17T16:28:33.027Z,53.20
2017-08-17T16:31:00.591Z,53.20
2017-08-17T16:33:28.194Z,53.30
2017-08-17T16:35:55.788Z,53.30
2017-08-17T16:38:24.046Z,53.70
2017-08-17T16:40:51.684Z,53.60
2017-08-17T16:43:19.222Z,53.80
2017-08-17T16:45:46.729Z,53.70
2017-08-17T16:48:15.013Z,53.80
2017-08-17T16:50:43.311Z,53.70
2017-08-17T16:53:10.888Z,53.60
2017-08-17T16:55:38.435Z,53.70
2017-08-17T16:58:05.913Z,53.80
2017-08-17T17:00:33.449Z,53.90
2017-08-17T17:03:00.958Z,53.80
2017-08-17T17:05:28.508Z,54.00
2017-08-17T17:07:56.037Z,54.00
2017-08-17T17:10:23.530Z,54.00
2017-08-17T17:12:51.106Z,54.00
2017-08-17T17:15:18.662Z,54.10
2017-08-17T17:17:46.168Z,54.00
2017-08-17T17:20:13.708Z,54.00
2017-08-17T17:22:42.002Z,54.00
2017-08-17T17:25:09.481Z,54.00
2017-08-17T17:27:37.090Z,54.00
2017-08-17T17:30:04.670Z,54.00
2017-08-17T17:32:32.922Z,54.00
2017-08-17T17:35:00.406Z,53.90
2017-08-17T17:37:28.672Z,54.00
2017-08-17T17:39:56.218Z,53.90
2017-08-17T17:42:23.708Z,53.90
2017-08-17T17:44:52.055Z,54.00
2017-08-17T17:47:19.727Z,53.90
2017-08-17T17:49:47.246Z,54.00
2017-08-17T17:52:14.803Z,54.00
2017-08-17T17:54:42.328Z,54.00
2017-08-17T17:57:20.536Z,54.00
2017-08-17T17:59:48.096Z,53.90
2017-08-17T18:02:16.505Z,54.20
2017-08-17T18:04:43.977Z,54.10
2017-08-17T18:07:11.525Z,54.40
2017-08-17T18:09:39.089Z,54.30
2017-08-17T18:12:06.648Z,54.30
2017-08-17T18:14:34.166Z,54.30
2017-08-17T18:17:02.504Z,55.10
2017-08-17T18:19:30.097Z,54.50
2017-08-17T18:21:58.446Z,54.50
2017-08-17T18:24:26.196Z,54.50
2017-08-17T18:26:53.924Z,54.40
2017-08-17T18:29:21.452Z,54.30
2017-08-17T18:31:49.417Z,54.30
2017-08-17T18:34:16.918Z,54.40
2017-08-17T18:36:45.364Z,54.40
2017-08-17T18:39:12.895Z,54.40
2017-08-17T18:41:40.562Z,54.60
2017-08-17T18:44:08.217Z,54.70
2017-08-17T18:46:35.727Z,54.50
2017-08-17T18:49:04.081Z,54.90
2017-08-17T18:51:31.595Z,54.30
2017-08-17T18:53:59.128Z,54.30
2017-08-17T18:56:27.414Z,54.30
2017-08-17T18:58:55.796Z,54.40
2017-08-17T19:01:24.084Z,54.30
2017-08-17T19:03:51.636Z,54.30
2017-08-17T19:06:19.347Z,54.30
2017-08-17T19:08:46.880Z,54.10
2017-08-17T19:11:14.459Z,54.20
2017-08-17T19:14:14.506Z,54.10
2017-08-17T19:16:42.131Z,54.10
2017-08-17T19:19:09.671Z,54.20
2017-08-17T19:21:37.192Z,54.30
2017-08-17T19:24:04.725Z,54.40
2017-08-17T19:26:32.287Z,54.30
2017-08-17T19:29:00.451Z,54.20
2017-08-17T19:31:27.941Z,54.10
2017-08-17T19:33:55.470Z,54.20
2017-08-17T19:36:23.123Z,54.30
2017-08-17T19:38:50.749Z,54.10
2017-08-17T19:41:19.050Z,54.20
2017-08-17T19:43:46.568Z,54.10
2017-08-17T19:46:14.354Z,54.10
2017-08-17T19:48:42.636Z,54.10
2017-08-17T19:51:10.962Z,54.30
2017-08-17T19:53:38.458Z,54.20
2017-08-17T19:56:06.776Z,54.30
2017-08-17T19:58:34.349Z,54.20
2017-08-17T20:01:01.825Z,54.10
2017-08-17T20:03:29.395Z,54.10
2017-08-17T20:05:56.927Z,54.10
2017-08-17T20:08:24.457Z,54.10
2017-08-17T20:10:52.003Z,54.10
2017-08-17T20:13:20.321Z,54.40
2017-08-17T20:15:47.882Z,54.40
2017-08-17T20:18:15.474Z,54.40
2017-08-17T20:20:43.186Z,54.30
2017-08-17T20:23:10.719Z,54.10
2017-08-17T20:25:38.976Z,54.10
2017-08-17T20:28:06.540Z,54.10
2017-08-17T20:30:34.071Z,54.20
2017-08-17T20:33:01.595Z,54.10
2017-08-17T20:35:29.906Z,54.10
2017-08-17T20:37:57.464Z,54.00
2017-08-17T20:40:24.959Z,54.30
2017-08-17T20:42:52.467Z,54.50
2017-08-17T20:45:19.978Z,54.50
2017-08-17T20:47:47.627Z,54.40
2017-08-17T20:50:15.171Z,54.20
2017-08-17T20:52:42.728Z,54.20
2017-08-17T21:08:16.068Z,53.80
2017-08-17T21:10:43.607Z,54.40
2017-08-17T21:13:11.168Z,54.30
2017-08-17T21:15:38.682Z,54.30
2017-08-17T21:18:06.220Z,54.30
2017-08-17T21:20:34.494Z,54.40
2017-08-17T21:23:02.767Z,54.40
2017-08-17T21:25:30.289Z,54.30
2017-08-17T21:27:57.806Z,54.30
2017-08-17T21:30:25.403Z,54.50
2017-08-17T21:32:53.101Z,54.50
2017-08-17T21:35:21.361Z,53.90
2017-08-17T21:37:48.889Z,54.30
2017-08-17T21:40:16.411Z,54.30
2017-08-17T21:42:48.014Z,54.50
2017-08-17T21:45:15.524Z,54.40
2017-08-17T21:47:43.817Z,55.20
2017-08-17T21:50:11.354Z,54.40
2017-08-17T21:52:39.734Z,55.40
2017-08-17T21:55:08.039Z,54.50
2017-08-17T21:57:35.586Z,54.50
2017-08-17T22:00:03.446Z,54.40
2017-08-17T22:02:31.111Z,54.30
2017-08-17T22:04:58.904Z,54.40
2017-08-17T22:07:26.473Z,54.40
2017-08-17T22:09:53.978Z,54.40
2017-08-17T22:12:21.888Z,54.50
2017-08-17T22:14:49.471Z,54.50
2017-08-17T22:17:17.216Z,54.40
2017-08-17T22:19:44.770Z,54.50
2017-08-17T22:22:12.332Z,54.50
2017-08-17T22:24:39.827Z,54.50
2017-08-17T22:27:07.354Z,54.50
2017-08-17T22:29:34.892Z,54.50
2017-08-17T22:32:03.177Z,54.60
2017-08-17T22:34:30.692Z,54.60
2017-08-17T22:36:58.265Z,54.60
2017-08-17T22:39:26.597Z,54.70
2017-08-17T22:41:54.101Z,54.50
2017-08-17T22:44:22.394Z,54.70
2017-08-17T22:46:50.741Z,54.70
2017-08-17T22:49:18.237Z,54.60
2017-08-17T22:51:45.760Z,54.70
2017-08-17T22:54:13.274Z,54.60
2017-08-17T22:56:40.805Z,54.60
2017-08-17T22:59:09.097Z,54.70
2017-08-17T23:01:36.732Z,54.60
2017-08-17T23:04:04.255Z,54.60
2017-08-17T23:06:31.801Z,54.70
2017-08-17T23:08:59.282Z,54.70
2017-08-17T23:11:26.809Z,54.70
2017-08-17T23:13:54.308Z,54.70
2017-08-17T23:16:21.834Z,54.80
2017-08-17T23:18:49.341Z,54.80
2017-08-17T23:21:16.840Z,54.80
2017-08-17T23:23:44.370Z,54.80
2017-08-17T23:26:12.072Z,54.90
2017-08-17T23:28:39.576Z,54.90
2017-08-17T23:31:07.087Z,54.90
2017-08-17T23:33:34.642Z,54.90
2017-08-17T23:36:02.255Z,54.80
2017-08-17T23:38:29.817Z,54.90
2017-08-17T23:40:57.342Z,54.90
2017-08-17T23:43:24.836Z,54.90
2017-08-17T23:45:52.492Z,54.80
2017-08-17T23:48:19.984Z,54.90
2017-08-17T23:50:48.282Z,55.00
2017-08-17T23:53:15.793Z,55.00
2017-08-17T23:55:43.292Z,55.10
2017-08-17T23:58:10.834Z,55.10
